RPA4754 KDCA-KLGA
Flight info
| Callsign | RPA4754 |
|---|---|
| Flight time | 0h 44m |
| Altitude | 29000 |
| Route | DOCTR5 AGARD SPEAK PROUD2 |
| Aircraft | E170/M-SDE3GILORVW/S |
Departure
| Time | 2026-05-05 23:13 |
|---|---|
| Airport | Ronald Reagan Washington National Airport (KDCA) |
Arrival
| Time | 2026-05-05 23:58 |
|---|---|
| Airport | LaGuardia Airport (KLGA) |
| Time | Latitude | Longitude | Altitude | Speed | Heading |
|---|---|---|---|---|---|
| 2026-05-05 22:11 | 38.85744 | -77.04287 | 22 ft | 0 kts | 339° |
| 2026-05-05 23:05 | 38.85730 | -77.04282 | 24 ft | 3 kts | 355° |
| 2026-05-05 23:05 | 38.85711 | -77.04287 | 22 ft | 3 kts | 35° |
| 2026-05-05 23:05 | 38.85701 | -77.04305 | 22 ft | 2 kts | 70° |
| 2026-05-05 23:05 | 38.85700 | -77.04309 | 22 ft | 0 kts | 72° |
| 2026-05-05 23:10 | 38.85700 | -77.04307 | 24 ft | 2 kts | 72° |
| 2026-05-05 23:10 | 38.85710 | -77.04263 | 22 ft | 8 kts | 75° |
| 2026-05-05 23:11 | 38.85731 | -77.04179 | 22 ft | 10 kts | 66° |
| 2026-05-05 23:11 | 38.85789 | -77.04165 | 22 ft | 11 kts | 334° |
| 2026-05-05 23:11 | 38.85856 | -77.04229 | 22 ft | 14 kts | 321° |
| 2026-05-05 23:11 | 38.85940 | -77.04311 | 22 ft | 17 kts | 324° |
| 2026-05-05 23:12 | 38.86018 | -77.04385 | 22 ft | 13 kts | 327° |
| 2026-05-05 23:12 | 38.86089 | -77.04370 | 21 ft | 9 kts | 58° |
| 2026-05-05 23:12 | 38.86079 | -77.04295 | 22 ft | 2 kts | 143° |
| 2026-05-05 23:12 | 38.86010 | -77.04227 | 23 ft | 49 kts | 143° |
| 2026-05-05 23:13 | 38.85487 | -77.03715 | 22 ft | 140 kts | 142° |
| 2026-05-05 23:13 | 38.84549 | -77.02819 | 492 ft | 186 kts | 146° |
| 2026-05-05 23:13 | 38.83415 | -77.01945 | 1628 ft | 195 kts | 170° |
| 2026-05-05 23:13 | 38.82061 | -77.01918 | 2760 ft | 202 kts | 200° |
| 2026-05-05 23:14 | 38.80671 | -77.02488 | 4051 ft | 215 kts | 206° |
| 2026-05-05 23:14 | 38.79247 | -77.03041 | 5733 ft | 210 kts | 198° |
| 2026-05-05 23:14 | 38.77781 | -77.03091 | 6597 ft | 218 kts | 176° |
| 2026-05-05 23:14 | 38.76327 | -77.02348 | 7092 ft | 237 kts | 153° |
| 2026-05-05 23:15 | 38.75035 | -77.00836 | 7285 ft | 267 kts | 131° |
| 2026-05-05 23:15 | 38.74190 | -76.98660 | 7830 ft | 278 kts | 109° |
| 2026-05-05 23:15 | 38.73997 | -76.96144 | 8217 ft | 294 kts | 85° |
| 2026-05-05 23:15 | 38.74564 | -76.93595 | 8642 ft | 300 kts | 64° |
| 2026-05-05 23:16 | 38.75481 | -76.91262 | 9496 ft | 291 kts | 63° |
| 2026-05-05 23:16 | 38.76407 | -76.88976 | 9684 ft | 287 kts | 52° |
| 2026-05-05 23:16 | 38.77945 | -76.87375 | 10026 ft | 290 kts | 24° |
| 2026-05-05 23:16 | 38.79831 | -76.86361 | 10458 ft | 299 kts | 15° |
| 2026-05-05 23:17 | 38.81813 | -76.85489 | 10899 ft | 312 kts | 15° |
| 2026-05-05 23:17 | 38.83934 | -76.84515 | 11280 ft | 328 kts | 17° |
| 2026-05-05 23:17 | 38.86040 | -76.83366 | 11682 ft | 343 kts | 27° |
| 2026-05-05 23:17 | 38.87809 | -76.81280 | 12223 ft | 354 kts | 56° |
| 2026-05-05 23:18 | 38.88941 | -76.78458 | 12919 ft | 357 kts | 66° |
| 2026-05-05 23:18 | 38.89902 | -76.75494 | 13583 ft | 362 kts | 68° |
| 2026-05-05 23:18 | 38.90859 | -76.72479 | 14225 ft | 367 kts | 68° |
| 2026-05-05 23:18 | 38.91847 | -76.69439 | 14882 ft | 371 kts | 67° |
| 2026-05-05 23:19 | 38.92854 | -76.66374 | 15543 ft | 375 kts | 67° |
| 2026-05-05 23:19 | 38.93872 | -76.63262 | 16204 ft | 379 kts | 67° |
| 2026-05-05 23:19 | 38.94887 | -76.60122 | 16867 ft | 383 kts | 66° |
| 2026-05-05 23:19 | 38.95920 | -76.56938 | 17522 ft | 388 kts | 66° |
| 2026-05-05 23:20 | 38.96971 | -76.53719 | 18198 ft | 392 kts | 66° |
| 2026-05-05 23:20 | 38.98030 | -76.50486 | 18870 ft | 395 kts | 66° |
| 2026-05-05 23:20 | 38.99098 | -76.47217 | 19556 ft | 397 kts | 65° |
| 2026-05-05 23:20 | 39.00160 | -76.43964 | 20226 ft | 399 kts | 65° |
| 2026-05-05 23:21 | 39.01084 | -76.40573 | 20847 ft | 404 kts | 76° |
| 2026-05-05 23:21 | 39.01581 | -76.36993 | 21163 ft | 417 kts | 82° |
| 2026-05-05 23:21 | 39.01916 | -76.33187 | 21200 ft | 435 kts | 84° |
| 2026-05-05 23:21 | 39.02229 | -76.29321 | 20852 ft | 445 kts | 84° |
| 2026-05-05 23:22 | 39.02575 | -76.25400 | 20931 ft | 441 kts | 83° |
| 2026-05-05 23:22 | 39.02943 | -76.21490 | 20973 ft | 446 kts | 83° |
| 2026-05-05 23:22 | 39.03326 | -76.17564 | 20953 ft | 444 kts | 83° |
| 2026-05-05 23:22 | 39.03716 | -76.13615 | 20955 ft | 444 kts | 82° |
| 2026-05-05 23:23 | 39.04099 | -76.09690 | 20966 ft | 444 kts | 82° |
| 2026-05-05 23:23 | 39.04480 | -76.05730 | 20967 ft | 444 kts | 83° |
| 2026-05-05 23:23 | 39.04738 | -76.01776 | 20971 ft | 444 kts | 86° |
| 2026-05-05 23:23 | 39.04871 | -75.97805 | 20965 ft | 444 kts | 88° |
| 2026-05-05 23:24 | 39.04991 | -75.93836 | 20957 ft | 444 kts | 88° |
| 2026-05-05 23:24 | 39.05141 | -75.89856 | 20953 ft | 444 kts | 87° |
| 2026-05-05 23:24 | 39.05312 | -75.85894 | 20952 ft | 444 kts | 86° |
| 2026-05-05 23:24 | 39.05490 | -75.81930 | 20950 ft | 444 kts | 86° |
| 2026-05-05 23:25 | 39.05696 | -75.77965 | 20945 ft | 444 kts | 83° |
| 2026-05-05 23:25 | 39.06515 | -75.74171 | 20937 ft | 440 kts | 62° |
| 2026-05-05 23:25 | 39.08262 | -75.70993 | 20968 ft | 434 kts | 45° |
| 2026-05-05 23:25 | 39.10381 | -75.68230 | 20984 ft | 433 kts | 40° |
| 2026-05-05 23:26 | 39.12521 | -75.65573 | 20916 ft | 432 kts | 40° |
| 2026-05-05 23:26 | 39.14670 | -75.62847 | 20942 ft | 434 kts | 41° |
| 2026-05-05 23:26 | 39.16788 | -75.60081 | 20935 ft | 434 kts | 43° |
| 2026-05-05 23:26 | 39.18895 | -75.57285 | 20934 ft | 434 kts | 43° |
| 2026-05-05 23:27 | 39.20998 | -75.54483 | 20931 ft | 434 kts | 43° |
| 2026-05-05 23:27 | 39.23133 | -75.51738 | 20932 ft | 432 kts | 37° |
| 2026-05-05 23:27 | 39.25513 | -75.49405 | 20935 ft | 430 kts | 31° |
| 2026-05-05 23:27 | 39.27978 | -75.47225 | 20932 ft | 428 kts | 30° |
| 2026-05-05 23:28 | 39.30454 | -75.45085 | 20937 ft | 428 kts | 30° |
| 2026-05-05 23:28 | 39.32924 | -75.42932 | 20937 ft | 429 kts | 30° |
| 2026-05-05 23:28 | 39.35391 | -75.40757 | 20932 ft | 429 kts | 31° |
| 2026-05-05 23:28 | 39.37821 | -75.38596 | 20940 ft | 429 kts | 31° |
| 2026-05-05 23:29 | 39.40289 | -75.36400 | 20949 ft | 429 kts | 31° |
| 2026-05-05 23:29 | 39.42744 | -75.34211 | 20955 ft | 429 kts | 31° |
| 2026-05-05 23:29 | 39.45206 | -75.32015 | 20950 ft | 429 kts | 31° |
| 2026-05-05 23:29 | 39.47668 | -75.29820 | 20949 ft | 429 kts | 31° |
| 2026-05-05 23:30 | 39.50131 | -75.27622 | 20952 ft | 429 kts | 31° |
| 2026-05-05 23:30 | 39.52587 | -75.25408 | 20954 ft | 430 kts | 32° |
| 2026-05-05 23:30 | 39.55008 | -75.23137 | 20944 ft | 431 kts | 33° |
| 2026-05-05 23:30 | 39.57427 | -75.20838 | 20941 ft | 430 kts | 33° |
| 2026-05-05 23:31 | 39.59852 | -75.18545 | 20945 ft | 430 kts | 33° |
| 2026-05-05 23:31 | 39.62267 | -75.16273 | 20941 ft | 430 kts | 33° |
| 2026-05-05 23:31 | 39.64667 | -75.14019 | 20935 ft | 426 kts | 32° |
| 2026-05-05 23:31 | 39.66999 | -75.11821 | 20884 ft | 404 kts | 32° |
| 2026-05-05 23:32 | 39.69241 | -75.09741 | 20910 ft | 391 kts | 30° |
| 2026-05-05 23:32 | 39.71528 | -75.07788 | 20999 ft | 397 kts | 29° |
| 2026-05-05 23:32 | 39.72915 | -75.06630 | 20964 ft | 397 kts | 29° |
| 2026-05-05 23:32 | 39.75250 | -75.04676 | 20419 ft | 399 kts | 30° |
| 2026-05-05 23:33 | 39.77570 | -75.02701 | 19748 ft | 397 kts | 30° |
| 2026-05-05 23:33 | 39.79859 | -75.00725 | 19030 ft | 393 kts | 30° |
| 2026-05-05 23:33 | 39.82121 | -74.98766 | 18359 ft | 388 kts | 30° |
| 2026-05-05 23:33 | 39.84308 | -74.96862 | 17520 ft | 369 kts | 30° |
| 2026-05-05 23:34 | 39.86427 | -74.95007 | 16719 ft | 368 kts | 31° |
| 2026-05-05 23:34 | 39.88569 | -74.93076 | 15901 ft | 377 kts | 32° |
| 2026-05-05 23:34 | 39.90676 | -74.91142 | 15336 ft | 367 kts | 32° |
| 2026-05-05 23:34 | 39.92670 | -74.89059 | 14795 ft | 370 kts | 41° |
| 2026-05-05 23:35 | 39.94453 | -74.86654 | 14273 ft | 366 kts | 45° |
| 2026-05-05 23:35 | 39.96137 | -74.84215 | 13777 ft | 357 kts | 46° |
| 2026-05-05 23:35 | 39.97775 | -74.81823 | 13336 ft | 350 kts | 46° |
| 2026-05-05 23:35 | 39.99388 | -74.79489 | 12862 ft | 344 kts | 45° |
| 2026-05-05 23:36 | 40.00986 | -74.77194 | 12419 ft | 338 kts | 45° |
| 2026-05-05 23:36 | 40.02559 | -74.74943 | 11970 ft | 333 kts | 45° |
| 2026-05-05 23:36 | 40.04114 | -74.72717 | 11529 ft | 329 kts | 46° |
| 2026-05-05 23:36 | 40.05642 | -74.70526 | 11096 ft | 325 kts | 46° |
| 2026-05-05 23:37 | 40.07154 | -74.68354 | 10670 ft | 322 kts | 46° |
| 2026-05-05 23:37 | 40.08651 | -74.66201 | 10291 ft | 317 kts | 46° |
| 2026-05-05 23:37 | 40.10104 | -74.64110 | 10132 ft | 308 kts | 46° |
| 2026-05-05 23:37 | 40.11550 | -74.62028 | 10002 ft | 308 kts | 46° |
| 2026-05-05 23:38 | 40.12999 | -74.59944 | 10068 ft | 313 kts | 46° |
| 2026-05-05 23:38 | 40.14470 | -74.57825 | 10043 ft | 316 kts | 46° |
| 2026-05-05 23:38 | 40.15949 | -74.55696 | 10036 ft | 315 kts | 46° |
| 2026-05-05 23:38 | 40.17422 | -74.53569 | 10038 ft | 316 kts | 46° |
| 2026-05-05 23:39 | 40.18895 | -74.51442 | 10038 ft | 316 kts | 46° |
| 2026-05-05 23:39 | 40.20369 | -74.49311 | 10047 ft | 316 kts | 46° |
| 2026-05-05 23:39 | 40.21881 | -74.47236 | 10038 ft | 315 kts | 43° |
| 2026-05-05 23:39 | 40.23475 | -74.45269 | 10047 ft | 315 kts | 41° |
| 2026-05-05 23:40 | 40.25093 | -74.43327 | 10051 ft | 315 kts | 41° |
| 2026-05-05 23:40 | 40.26690 | -74.41360 | 10052 ft | 315 kts | 42° |
| 2026-05-05 23:40 | 40.28277 | -74.39373 | 9957 ft | 316 kts | 42° |
| 2026-05-05 23:40 | 40.29859 | -74.37371 | 9827 ft | 314 kts | 43° |
| 2026-05-05 23:41 | 40.31427 | -74.35387 | 9656 ft | 312 kts | 42° |
| 2026-05-05 23:41 | 40.32964 | -74.33441 | 9496 ft | 310 kts | 42° |
| 2026-05-05 23:41 | 40.34516 | -74.31475 | 9343 ft | 310 kts | 42° |
| 2026-05-05 23:41 | 40.36067 | -74.29510 | 9182 ft | 309 kts | 42° |
| 2026-05-05 23:42 | 40.37608 | -74.27556 | 9034 ft | 309 kts | 42° |
| 2026-05-05 23:42 | 40.39137 | -74.25614 | 8876 ft | 309 kts | 42° |
| 2026-05-05 23:42 | 40.40679 | -74.23653 | 8719 ft | 308 kts | 42° |
| 2026-05-05 23:42 | 40.42214 | -74.21701 | 8576 ft | 307 kts | 42° |
| 2026-05-05 23:43 | 40.43744 | -74.19755 | 8424 ft | 307 kts | 42° |
| 2026-05-05 23:43 | 40.45282 | -74.17796 | 8240 ft | 307 kts | 42° |
| 2026-05-05 23:43 | 40.46809 | -74.15849 | 8090 ft | 306 kts | 42° |
| 2026-05-05 23:43 | 40.48337 | -74.13901 | 7915 ft | 306 kts | 42° |
| 2026-05-05 23:44 | 40.49857 | -74.11956 | 7742 ft | 305 kts | 42° |
| 2026-05-05 23:44 | 40.51289 | -74.10126 | 7557 ft | 305 kts | 41° |
| 2026-05-05 23:44 | 40.52922 | -74.08381 | 7358 ft | 302 kts | 33° |
| 2026-05-05 23:44 | 40.54563 | -74.06934 | 7177 ft | 300 kts | 28° |
| 2026-05-05 23:45 | 40.56269 | -74.05562 | 6964 ft | 298 kts | 27° |
| 2026-05-05 23:45 | 40.57273 | -74.04766 | 6826 ft | 298 kts | 27° |
| 2026-05-05 23:45 | 40.58868 | -74.03485 | 6634 ft | 297 kts | 28° |
| 2026-05-05 23:45 | 40.60410 | -74.02207 | 6440 ft | 297 kts | 28° |
| 2026-05-05 23:46 | 40.61465 | -74.01310 | 6299 ft | 297 kts | 29° |
| 2026-05-05 23:46 | 40.62793 | -74.00168 | 6095 ft | 296 kts | 30° |
| 2026-05-05 23:46 | 40.64510 | -73.98685 | 5840 ft | 293 kts | 31° |
| 2026-05-05 23:46 | 40.65552 | -73.97493 | 5670 ft | 297 kts | 47° |
| 2026-05-05 23:47 | 40.67004 | -73.94410 | 5348 ft | 300 kts | 53° |
| 2026-05-05 23:47 | 40.68299 | -73.92295 | 5098 ft | 298 kts | 47° |
| 2026-05-05 23:47 | 40.69173 | -73.90930 | 4938 ft | 300 kts | 47° |
| 2026-05-05 23:47 | 40.70472 | -73.88803 | 4671 ft | 293 kts | 50° |
| 2026-05-05 23:48 | 40.71546 | -73.86949 | 4449 ft | 287 kts | 51° |
| 2026-05-05 23:48 | 40.72748 | -73.84886 | 4186 ft | 281 kts | 50° |
| 2026-05-05 23:48 | 40.73900 | -73.82896 | 3934 ft | 277 kts | 50° |
| 2026-05-05 23:48 | 40.75057 | -73.80902 | 3694 ft | 273 kts | 50° |
| 2026-05-05 23:49 | 40.76207 | -73.78971 | 3537 ft | 264 kts | 46° |
| 2026-05-05 23:49 | 40.77503 | -73.77370 | 3509 ft | 250 kts | 37° |
| 2026-05-05 23:49 | 40.78737 | -73.75769 | 3570 ft | 252 kts | 42° |
| 2026-05-05 23:49 | 40.79973 | -73.74117 | 3573 ft | 253 kts | 42° |
| 2026-05-05 23:50 | 40.81216 | -73.72446 | 3568 ft | 255 kts | 42° |
| 2026-05-05 23:50 | 40.82466 | -73.70772 | 3569 ft | 255 kts | 42° |
| 2026-05-05 23:50 | 40.83715 | -73.69087 | 3512 ft | 256 kts | 43° |
| 2026-05-05 23:50 | 40.84950 | -73.67429 | 3526 ft | 253 kts | 42° |
| 2026-05-05 23:51 | 40.86292 | -73.65945 | 3433 ft | 250 kts | 20° |
| 2026-05-05 23:51 | 40.87916 | -73.65523 | 3367 ft | 232 kts | 345° |
| 2026-05-05 23:51 | 40.89348 | -73.66219 | 3300 ft | 217 kts | 322° |
| 2026-05-05 23:51 | 40.90675 | -73.67200 | 3224 ft | 217 kts | 322° |
| 2026-05-05 23:52 | 40.91992 | -73.68165 | 3153 ft | 216 kts | 322° |
| 2026-05-05 23:52 | 40.93301 | -73.69126 | 3070 ft | 212 kts | 318° |
| 2026-05-05 23:52 | 40.94454 | -73.70297 | 3024 ft | 208 kts | 312° |
| 2026-05-05 23:52 | 40.95574 | -73.71519 | 3087 ft | 209 kts | 309° |
| 2026-05-05 23:53 | 40.96307 | -73.73071 | 3067 ft | 195 kts | 276° |
| 2026-05-05 23:53 | 40.96113 | -73.74760 | 3065 ft | 188 kts | 240° |
| 2026-05-05 23:53 | 40.95168 | -73.75957 | 3075 ft | 194 kts | 213° |
| 2026-05-05 23:53 | 40.93888 | -73.76530 | 3003 ft | 203 kts | 201° |
| 2026-05-05 23:54 | 40.92526 | -73.76974 | 2901 ft | 199 kts | 200° |
| 2026-05-05 23:54 | 40.91194 | -73.77233 | 2749 ft | 191 kts | 194° |
| 2026-05-05 23:54 | 40.89929 | -73.77515 | 2575 ft | 173 kts | 206° |
| 2026-05-05 23:54 | 40.88818 | -73.78008 | 2427 ft | 165 kts | 206° |
| 2026-05-05 23:55 | 40.87755 | -73.78481 | 2274 ft | 163 kts | 206° |
| 2026-05-05 23:55 | 40.86722 | -73.79076 | 2046 ft | 164 kts | 216° |
| 2026-05-05 23:55 | 40.85821 | -73.80009 | 1728 ft | 160 kts | 227° |
| 2026-05-05 23:55 | 40.85075 | -73.80995 | 1643 ft | 148 kts | 229° |
| 2026-05-05 23:56 | 40.84325 | -73.81968 | 1403 ft | 155 kts | 225° |
| 2026-05-05 23:56 | 40.83490 | -73.82849 | 1207 ft | 149 kts | 220° |
| 2026-05-05 23:56 | 40.82664 | -73.83587 | 1037 ft | 134 kts | 217° |
| 2026-05-05 23:56 | 40.81902 | -73.84263 | 790 ft | 133 kts | 215° |
| 2026-05-05 23:57 | 40.81121 | -73.84928 | 594 ft | 137 kts | 213° |
| 2026-05-05 23:57 | 40.80323 | -73.85598 | 418 ft | 135 kts | 211° |
| 2026-05-05 23:57 | 40.79517 | -73.86265 | 279 ft | 139 kts | 210° |
| 2026-05-05 23:57 | 40.78684 | -73.86953 | 81 ft | 141 kts | 212° |
| 2026-05-05 23:58 | 40.77906 | -73.87599 | 16 ft | 112 kts | 211° |
| 2026-05-05 23:58 | 40.77452 | -73.87967 | 21 ft | 35 kts | 203° |
| 2026-05-05 23:58 | 40.77311 | -73.87994 | 18 ft | 13 kts | 158° |
| 2026-05-05 23:58 | 40.77316 | -73.87928 | 18 ft | 11 kts | 28° |
| 2026-05-05 23:59 | 40.77396 | -73.87863 | 18 ft | 15 kts | 28° |
| 2026-05-05 23:59 | 40.77501 | -73.87780 | 19 ft | 20 kts | 33° |
| 2026-05-05 23:59 | 40.77601 | -73.87688 | 20 ft | 15 kts | 60° |
| 2026-05-05 23:59 | 40.77643 | -73.87579 | 18 ft | 15 kts | 32° |
| 2026-05-06 00:00 | 40.77732 | -73.87489 | 16 ft | 20 kts | 52° |
| 2026-05-06 00:00 | 40.77772 | -73.87323 | 13 ft | 21 kts | 91° |
| 2026-05-06 00:00 | 40.77727 | -73.87171 | 13 ft | 18 kts | 122° |
| 2026-05-06 00:00 | 40.77665 | -73.87045 | 12 ft | 14 kts | 122° |
| 2026-05-06 00:01 | 40.77614 | -73.86990 | 14 ft | 5 kts | 199° |
| 2026-05-06 00:01 | 40.77601 | -73.87001 | 15 ft | 0 kts | 213° |
| 2026-05-06 00:01 | 40.77593 | -73.87008 | 16 ft | 3 kts | 214° |
| 2026-05-06 00:01 | 40.77562 | -73.87035 | 17 ft | 9 kts | 212° |
| 2026-05-06 00:02 | 40.77499 | -73.87086 | 17 ft | 12 kts | 211° |
| 2026-05-06 00:02 | 40.77438 | -73.87136 | 17 ft | 9 kts | 227° |
| 2026-05-06 00:02 | 40.77449 | -73.87174 | 19 ft | 5 kts | 343° |
| 2026-05-06 00:02 | 40.77473 | -73.87176 | 17 ft | 3 kts | 359° |
| 2026-05-06 00:03 | 40.77477 | -73.87176 | 17 ft | 0 kts | 359° |